Time;durP1;ratioP1;P1;durP2;ratioP2;P2;SDS_P1;SDS_P2;PMS_P1;PMS_P2;Temp;Humidity;BMP_temperature;BMP_pressure;BME280_temperature;BME280_humidity;BME280_pressure;Samples;Min_cycle;Max_cycle;Signal;HPM_P1;HPM_P2
2022/05/28 00:02:03;;;;;;;10.68;1.60;;;11.80;99.90;;;;;;5023268;28;20105;-48
2022/05/28 00:04:35;;;;;;;9.07;1.83;;;11.70;99.90;;;;;;5043205;28;20041;-43
2022/05/28 00:07:03;;;;;;;6.63;1.70;;;11.70;99.90;;;;;;5024923;28;20107;-44
2022/05/28 00:09:32;;;;;;;12.75;2.20;;;11.60;99.90;;;;;;5042198;28;20698;-43
2022/05/28 00:11:58;;;;;;;8.95;1.83;;;11.60;99.90;;;;;;5009687;28;20068;-46
2022/05/28 00:14:23;;;;;;;10.32;1.85;;;11.60;99.90;;;;;;5021299;28;20056;-46
2022/05/28 00:16:54;;;;;;;8.77;2.40;;;11.60;99.90;;;;;;5003694;28;20496;-45
2022/05/28 00:19:20;;;;;;;10.85;1.98;;;11.50;99.90;;;;;;5004140;28;20050;-44
2022/05/28 00:21:48;;;;;;;8.35;1.90;;;11.50;99.90;;;;;;5022398;28;20463;-44
2022/05/28 00:24:15;;;;;;;9.18;2.45;;;11.50;99.90;;;;;;5020874;28;20252;-45
2022/05/28 00:26:43;;;;;;;11.43;2.50;;;11.50;99.90;;;;;;5022200;28;20541;-45
2022/05/28 00:29:09;;;;;;;10.52;2.63;;;11.50;99.90;;;;;;5022527;28;20518;-45
2022/05/28 00:31:35;;;;;;;8.35;1.60;;;11.50;99.90;;;;;;5024338;28;20049;-46
2022/05/28 00:34:01;;;;;;;9.55;3.22;;;11.40;99.90;;;;;;5022084;28;20522;-47
2022/05/28 00:36:26;;;;;;;10.80;2.10;;;11.40;99.90;;;;;;5022105;28;20584;-46
2022/05/28 00:38:52;;;;;;;8.77;1.70;;;11.30;99.90;;;;;;5016497;28;20050;-47
2022/05/28 00:41:18;;;;;;;11.40;2.35;;;11.30;99.90;;;;;;5018005;28;20100;-45
2022/05/28 00:43:45;;;;;;;9.50;1.85;;;11.20;99.90;;;;;;5021763;28;20483;-42
2022/05/28 00:46:25;;;;;;;12.57;2.13;;;11.10;99.90;;;;;;5018555;28;20497;-45
2022/05/28 00:48:58;;;;;;;9.52;1.60;;;11.10;99.90;;;;;;5021736;28;20076;-46
2022/05/28 00:51:34;;;;;;;7.97;1.80;;;11.00;99.90;;;;;;5021588;28;20446;-44
2022/05/28 00:54:06;;;;;;;8.50;2.08;;;11.00;99.90;;;;;;5021014;28;20056;-44
2022/05/28 00:56:32;;;;;;;12.50;2.00;;;10.90;99.90;;;;;;5018133;28;20050;-45
2022/05/28 00:58:58;;;;;;;7.43;1.83;;;10.90;99.90;;;;;;5021969;28;20042;-45
2022/05/28 01:01:30;;;;;;;10.80;1.83;;;10.80;99.90;;;;;;5016189;28;20409;-44
2022/05/28 01:04:21;;;;;;;7.68;1.85;;;10.80;99.90;;;;;;5022111;28;20330;-44
2022/05/28 01:06:56;;;;;;;12.00;2.50;;;10.70;99.90;;;;;;5012609;28;20053;-45
2022/05/28 01:09:30;;;;;;;12.18;2.20;;;10.70;99.90;;;;;;5023660;28;20049;-45
2022/05/28 01:12:28;;;;;;;11.00;1.75;;;10.60;99.90;;;;;;5022912;28;20053;-44
2022/05/28 01:15:29;;;;;;;12.55;2.08;;;10.60;99.90;;;;;;5019005;28;20081;-45
2022/05/28 01:18:06;;;;;;;11.25;2.42;;;10.50;99.90;;;;;;4934087;29;20059;-45
2022/05/28 01:20:40;;;;;;;10.45;1.77;;;10.50;99.90;;;;;;4942409;29;20059;-44
2022/05/28 01:23:26;;;;;;;12.73;1.77;;;10.50;99.90;;;;;;4924570;29;20094;-45
2022/05/28 01:26:01;;;;;;;7.72;2.38;;;10.40;99.90;;;;;;4924027;29;20586;-46
2022/05/28 01:28:45;;;;;;;14.52;2.20;;;10.40;99.90;;;;;;4940301;29;20598;-45
2022/05/28 01:31:12;;;;;;;10.80;1.77;;;10.40;99.90;;;;;;4914753;29;20593;-44
2022/05/28 01:33:41;;;;;;;6.43;1.77;;;10.40;99.90;;;;;;4941625;29;20395;-44
2022/05/28 01:36:11;;;;;;;9.35;2.50;;;10.30;99.90;;;;;;4941762;29;20090;-43
2022/05/28 01:38:42;;;;;;;9.27;2.17;;;10.30;99.90;;;;;;4936900;29;20051;-44
2022/05/28 01:41:09;;;;;;;10.45;1.98;;;10.30;99.90;;;;;;4943835;28;20594;-47
2022/05/28 01:43:41;;;;;;;5.03;1.50;;;10.30;99.90;;;;;;4939459;29;20101;-48
2022/05/28 01:46:12;;;;;;;10.90;2.85;;;10.20;99.90;;;;;;4941889;29;20549;-47
2022/05/28 01:48:42;;;;;;;9.30;1.83;;;10.20;99.90;;;;;;4924337;29;20103;-48
2022/05/28 01:51:10;;;;;;;16.13;2.70;;;10.20;99.90;;;;;;4942004;29;20430;-45
2022/05/28 01:56:22;;;;;;;6.72;2.35;;;10.10;99.90;;;;;;5021491;28;20151;-45
2022/05/28 01:58:49;;;;;;;9.15;2.10;;;10.10;99.90;;;;;;5022386;28;20429;-46
2022/05/28 02:01:15;;;;;;;7.22;1.83;;;10.00;99.90;;;;;;5034499;28;20053;-45
2022/05/28 02:03:44;;;;;;;13.32;2.33;;;10.00;99.90;;;;;;5023085;28;20516;-45
2022/05/28 02:06:11;;;;;;;10.70;1.80;;;10.00;99.90;;;;;;5040367;28;20152;-45
2022/05/28 02:08:40;;;;;;;9.65;2.10;;;9.90;99.90;;;;;;5037075;28;20580;-45
2022/05/28 02:11:20;;;;;;;13.68;2.83;;;9.90;99.90;;;;;;5027009;28;20041;-45
2022/05/28 02:13:48;;;;;;;12.48;2.53;;;9.90;99.90;;;;;;5040606;28;20463;-45
2022/05/28 02:16:24;;;;;;;13.90;2.80;;;10.00;99.90;;;;;;5035959;28;20577;-46
2022/05/28 02:19:06;;;;;;;10.23;2.17;;;10.00;99.90;;;;;;5039704;28;20079;-46
2022/05/28 02:21:43;;;;;;;11.57;1.80;;;9.90;99.90;;;;;;5021460;28;20137;-46
2022/05/28 02:24:17;;;;;;;11.00;2.10;;;9.90;99.90;;;;;;5036680;28;20498;-46
2022/05/28 02:26:50;;;;;;;10.27;2.40;;;9.80;99.90;;;;;;5041303;28;20057;-47
2022/05/28 02:29:17;;;;;;;8.52;2.35;;;9.80;99.90;;;;;;5041147;28;20049;-44
2022/05/28 02:31:47;;;;;;;15.40;3.67;;;9.80;99.90;;;;;;5041520;28;20088;-46
2022/05/28 02:34:14;;;;;;;15.32;2.85;;;9.80;99.90;;;;;;5040632;28;20579;-48
2022/05/28 02:36:41;;;;;;;10.70;2.92;;;9.80;99.90;;;;;;5040273;28;20052;-45
2022/05/28 02:39:07;;;;;;;9.65;2.25;;;9.80;99.90;;;;;;5031029;28;20045;-46
2022/05/28 02:41:33;;;;;;;10.68;2.28;;;9.80;99.90;;;;;;5041449;28;20194;-46
2022/05/28 02:43:59;;;;;;;18.58;3.03;;;9.90;99.90;;;;;;5023146;28;20483;-45
2022/05/28 02:46:35;;;;;;;;;;;;;;;;;;;;;
2022/05/28 02:49:01;;;;;;;9.48;2.30;;;9.80;99.90;;;;;;5015833;28;20508;-49
2022/05/28 02:51:27;;;;;;;9.23;2.35;;;9.80;99.90;;;;;;5040231;28;20576;-45
2022/05/28 02:53:54;;;;;;;12.15;2.30;;;9.80;99.90;;;;;;5038133;28;20127;-45
2022/05/28 02:56:26;;;;;;;9.70;2.30;;;9.80;99.90;;;;;;5040725;28;20049;-49
2022/05/28 02:58:52;;;;;;;10.27;2.17;;;9.80;99.90;;;;;;5039781;28;20500;-48
2022/05/28 03:01:23;;;;;;;9.65;2.15;;;9.70;99.90;;;;;;5020121;28;20511;-44
2022/05/28 03:03:49;;;;;;;9.43;2.78;;;9.70;99.90;;;;;;5040089;28;20518;-44
2022/05/28 03:06:27;;;;;;;11.88;3.28;;;9.70;99.90;;;;;;5013378;28;20049;-45
2022/05/28 03:08:53;;;;;;;10.88;1.88;;;9.70;99.90;;;;;;5033733;28;20072;-47
2022/05/28 03:11:19;;;;;;;13.05;2.72;;;9.70;99.90;;;;;;5041601;28;20516;-48
2022/05/28 03:13:48;;;;;;;15.30;2.42;;;9.70;99.90;;;;;;5039271;28;20041;-49
2022/05/28 03:16:14;;;;;;;11.68;2.28;;;9.60;99.90;;;;;;5042753;28;20076;-45
2022/05/28 03:18:40;;;;;;;10.43;2.33;;;9.70;99.90;;;;;;5040508;28;20106;-42
2022/05/28 03:21:07;;;;;;;10.60;2.47;;;9.60;99.90;;;;;;5039660;28;20061;-49
2022/05/28 03:23:33;;;;;;;12.63;2.22;;;9.60;99.90;;;;;;5022161;28;20045;-46
2022/05/28 03:26:17;;;;;;;16.13;2.65;;;9.60;99.90;;;;;;5014314;28;20088;-43
2022/05/28 03:28:44;;;;;;;8.93;2.40;;;9.60;99.90;;;;;;5021267;28;20061;-44
2022/05/28 03:31:19;;;;;;;13.68;2.83;;;9.60;99.90;;;;;;5040753;28;20499;-46
2022/05/28 03:33:48;;;;;;;15.20;3.35;;;9.60;99.90;;;;;;5019628;28;21183;-44
2022/05/28 03:36:14;;;;;;;11.30;2.05;;;9.60;99.90;;;;;;5038772;28;20102;-44
2022/05/28 03:38:40;;;;;;;12.23;2.63;;;9.60;99.90;;;;;;5012548;28;20050;-44
2022/05/28 03:41:06;;;;;;;9.48;2.35;;;9.60;99.90;;;;;;5038127;28;20543;-45
2022/05/28 03:43:32;;;;;;;10.40;2.08;;;9.60;99.90;;;;;;5038569;28;20048;-43
2022/05/28 03:45:58;;;;;;;18.50;3.15;;;9.70;99.90;;;;;;5038328;28;20052;-45
2022/05/28 03:48:33;;;;;;;14.82;3.20;;;9.70;99.90;;;;;;5036152;28;20400;-46
2022/05/28 03:50:59;;;;;;;15.43;2.70;;;9.70;99.90;;;;;;5019880;28;20438;-44
2022/05/28 03:53:26;;;;;;;16.23;3.13;;;9.70;99.90;;;;;;5038992;28;20049;-45
2022/05/28 03:55:52;;;;;;;10.68;2.65;;;9.70;99.90;;;;;;5040422;28;20068;-45
2022/05/28 03:58:20;;;;;;;14.45;3.17;;;9.80;99.90;;;;;;5020661;28;20591;-46
2022/05/28 04:00:46;;;;;;;15.75;3.00;;;9.80;99.90;;;;;;5023339;28;20045;-46
2022/05/28 04:03:12;;;;;;;10.48;2.50;;;9.90;99.90;;;;;;5039395;28;20495;-44
2022/05/28 04:05:41;;;;;;;12.95;3.47;;;10.00;99.90;;;;;;5038597;28;20042;-46
2022/05/28 04:08:10;;;;;;;13.20;3.40;;;10.30;99.90;;;;;;5041884;28;20048;-45
2022/05/28 04:10:35;;;;;;;14.73;2.25;;;11.00;99.90;;;;;;5038598;28;20444;-45
2022/05/28 04:13:01;;;;;;;12.63;3.63;;;11.40;99.90;;;;;;5044457;28;20080;-43
2022/05/28 04:15:28;;;;;;;15.40;3.67;;;11.80;99.90;;;;;;5042627;28;20044;-46
2022/05/28 04:17:55;;;;;;;16.23;3.13;;;12.10;99.90;;;;;;5040822;28;20563;-46
2022/05/28 04:20:24;;;;;;;14.13;3.67;;;12.10;99.90;;;;;;5026631;28;20053;-42
2022/05/28 04:22:50;;;;;;;22.00;5.30;;;12.10;99.90;;;;;;5019050;28;20045;-46
2022/05/28 04:25:16;;;;;;;14.38;2.55;;;12.70;99.90;;;;;;5024539;28;20056;-45
2022/05/28 04:27:42;;;;;;;10.02;2.70;;;13.50;99.90;;;;;;5042268;28;20049;-45
2022/05/28 04:30:09;;;;;;;17.70;3.47;;;14.30;99.90;;;;;;5042512;28;20048;-46
2022/05/28 04:32:35;;;;;;;10.43;2.85;;;15.10;99.90;;;;;;5042686;28;20150;-44
2022/05/28 04:35:00;;;;;;;14.48;2.70;;;15.80;99.90;;;;;;5040199;28;20123;-45
2022/05/28 04:37:26;;;;;;;14.63;3.15;;;16.40;99.90;;;;;;5042782;28;20049;-46
2022/05/28 04:39:52;;;;;;;12.65;3.05;;;17.10;99.90;;;;;;5042315;28;20057;-46
2022/05/28 04:42:20;;;;;;;14.55;3.45;;;17.00;99.90;;;;;;5023077;28;20053;-45
2022/05/28 04:44:46;;;;;;;10.07;3.20;;;16.90;99.90;;;;;;5042504;28;20117;-44
2022/05/28 04:47:12;;;;;;;13.93;3.65;;;17.10;99.90;;;;;;5041750;28;20454;-46
2022/05/28 04:49:38;;;;;;;9.82;2.40;;;17.60;99.90;;;;;;5041008;28;20455;-47
2022/05/28 04:52:04;;;;;;;8.65;2.78;;;18.10;99.90;;;;;;5020604;28;20053;-47
2022/05/28 04:54:31;;;;;;;14.30;3.85;;;18.90;99.90;;;;;;5040780;28;20105;-47
2022/05/28 04:56:57;;;;;;;10.90;2.72;;;19.40;99.50;;;;;;5041776;28;20048;-46
2022/05/28 04:59:28;;;;;;;12.68;3.42;;;19.40;98.70;;;;;;5025322;28;20507;-46
2022/05/28 05:01:54;;;;;;;14.73;4.10;;;19.60;98.00;;;;;;5042478;28;20071;-46
2022/05/28 05:04:19;;;;;;;11.43;2.90;;;19.60;96.60;;;;;;5007115;28;20488;-49
2022/05/28 05:06:47;;;;;;;16.48;3.85;;;19.60;96.40;;;;;;5042816;28;20071;-46
2022/05/28 05:09:16;;;;;;;14.35;3.35;;;18.90;96.60;;;;;;5042363;28;20044;-46
2022/05/28 05:11:42;;;;;;;10.18;2.92;;;17.70;97.10;;;;;;5022007;28;20157;-48
2022/05/28 05:14:08;;;;;;;14.32;3.15;;;16.60;98.60;;;;;;5035926;28;20580;-44
2022/05/28 05:16:34;;;;;;;12.48;3.22;;;16.10;99.90;;;;;;5021001;28;20555;-48
2022/05/28 05:18:59;;;;;;;9.88;2.85;;;17.00;99.90;;;;;;5020218;28;20041;-49
2022/05/28 05:21:28;;;;;;;11.13;3.53;;;17.50;98.80;;;;;;5017970;28;20504;-45
2022/05/28 05:23:54;;;;;;;16.00;3.53;;;17.10;99.00;;;;;;5038900;28;20052;-48
2022/05/28 05:26:21;;;;;;;10.68;3.00;;;17.10;99.10;;;;;;5039860;28;20416;-47
2022/05/28 05:28:50;;;;;;;14.00;3.25;;;18.20;99.40;;;;;;5040857;28;20044;-49
2022/05/28 05:31:19;;;;;;;9.50;3.35;;;19.60;97.30;;;;;;5039813;28;20452;-46
2022/05/28 05:33:45;;;;;;;18.52;3.15;;;20.50;95.90;;;;;;5036344;28;20049;-45
2022/05/28 05:36:11;;;;;;;13.48;2.78;;;20.90;95.20;;;;;;5041640;28;20068;-45
2022/05/28 05:38:37;;;;;;;11.55;3.40;;;19.80;94.30;;;;;;5018403;28;20053;-46
2022/05/28 05:41:03;;;;;;;14.45;3.53;;;18.70;95.30;;;;;;5018547;28;20053;-48
2022/05/28 05:43:32;;;;;;;13.80;3.45;;;18.70;96.30;;;;;;5038547;28;20052;-47
2022/05/28 05:46:00;;;;;;;13.38;3.85;;;18.90;96.10;;;;;;5021545;28;20061;-47
2022/05/28 05:48:28;;;;;;;12.60;3.75;;;19.60;95.90;;;;;;5041289;28;20278;-46
2022/05/28 05:50:54;;;;;;;13.60;3.42;;;20.10;95.00;;;;;;5041753;28;20053;-45
2022/05/28 05:53:20;;;;;;;11.05;3.05;;;20.20;93.60;;;;;;5040571;28;20049;-49
2022/05/28 05:55:45;;;;;;;12.48;3.05;;;19.90;94.50;;;;;;5039162;28;20348;-45
2022/05/28 05:58:17;;;;;;;11.98;3.00;;;20.00;95.30;;;;;;5040051;28;20060;-47
2022/05/28 06:00:46;;;;;;;14.20;3.60;;;20.30;94.30;;;;;;5041487;28;20053;-48
2022/05/28 06:03:19;;;;;;;11.52;3.30;;;20.90;93.60;;;;;;5020186;28;20159;-48
2022/05/28 06:05:45;;;;;;;11.23;3.60;;;21.60;93.00;;;;;;5021207;28;20049;-50
2022/05/28 06:08:15;;;;;;;15.80;3.17;;;21.80;92.30;;;;;;5036382;28;20471;-45
2022/05/28 06:10:43;;;;;;;13.65;3.40;;;21.10;91.90;;;;;;5003714;28;20102;-47
2022/05/28 06:13:11;;;;;;;10.15;3.42;;;20.00;92.60;;;;;;5043239;28;20344;-49
2022/05/28 06:15:37;;;;;;;11.60;3.40;;;18.90;93.80;;;;;;5041205;28;20071;-45
2022/05/28 06:18:03;;;;;;;19.35;4.00;;;17.80;94.40;;;;;;5022702;28;20052;-46
2022/05/28 06:20:34;;;;;;;15.68;4.07;;;16.70;96.20;;;;;;5032917;28;20128;-45
2022/05/28 06:23:02;;;;;;;10.77;2.90;;;16.10;97.60;;;;;;5028305;28;20170;-47
2022/05/28 06:25:27;;;;;;;12.88;3.47;;;15.70;98.50;;;;;;5041127;28;20403;-45
2022/05/28 06:27:53;;;;;;;11.85;3.58;;;15.40;99.30;;;;;;5038894;28;20047;-49
2022/05/28 06:30:24;;;;;;;17.15;3.90;;;15.00;99.70;;;;;;5020617;28;20091;-43
2022/05/28 06:32:53;;;;;;;13.60;3.22;;;14.80;99.90;;;;;;5037166;28;20040;-47
2022/05/28 06:35:24;;;;;;;15.30;3.78;;;14.70;99.90;;;;;;5041236;28;20049;-46
2022/05/28 06:37:50;;;;;;;15.50;3.83;;;15.30;99.90;;;;;;5040089;28;20056;-42
2022/05/28 06:40:16;;;;;;;16.42;3.80;;;16.00;99.90;;;;;;5031711;28;20052;-44
2022/05/28 06:42:42;;;;;;;12.70;3.10;;;15.90;99.90;;;;;;5040595;28;20578;-45
2022/05/28 06:45:14;;;;;;;14.48;3.83;;;15.80;99.90;;;;;;5039108;28;20045;-47
2022/05/28 06:47:45;;;;;;;15.10;3.33;;;16.60;99.90;;;;;;5021941;28;20049;-44
2022/05/28 06:53:08;;;;;;;11.48;3.25;;;18.90;96.90;;;;;;5039916;28;20041;-46
2022/05/28 06:55:35;;;;;;;19.20;3.80;;;18.30;96.50;;;;;;5020324;28;20488;-44
2022/05/28 06:58:01;;;;;;;12.38;3.40;;;17.80;96.90;;;;;;5038630;28;20453;-42
2022/05/28 07:00:27;;;;;;;11.02;3.63;;;17.90;97.80;;;;;;5043244;28;20045;-44
2022/05/28 07:02:52;;;;;;;12.98;4.05;;;17.40;97.40;;;;;;5039831;28;20556;-45
2022/05/28 07:05:19;;;;;;;15.13;4.15;;;17.00;98.30;;;;;;5018635;28;20422;-44
2022/05/28 07:07:45;;;;;;;14.90;3.63;;;16.80;98.60;;;;;;5036907;28;20092;-44
2022/05/28 07:10:11;;;;;;;14.07;3.58;;;16.60;99.30;;;;;;5040909;28;20131;-45
2022/05/28 07:12:37;;;;;;;13.30;3.03;;;16.80;99.40;;;;;;5040560;28;20044;-44
2022/05/28 07:15:03;;;;;;;13.77;3.80;;;16.90;99.40;;;;;;5039816;28;20087;-44
2022/05/28 07:17:29;;;;;;;9.35;3.30;;;17.10;99.10;;;;;;5039259;28;20563;-45
2022/05/28 07:19:55;;;;;;;12.18;3.40;;;17.00;98.10;;;;;;5018265;28;20064;-44
2022/05/28 07:22:20;;;;;;;13.05;3.00;;;17.00;98.90;;;;;;5038080;28;20049;-44
2022/05/28 07:24:46;;;;;;;11.05;3.58;;;16.90;98.20;;;;;;5038397;28;20044;-44
2022/05/28 07:27:12;;;;;;;10.85;3.00;;;17.00;98.80;;;;;;5038136;28;20452;-43
2022/05/28 07:29:39;;;;;;;11.25;4.03;;;17.70;99.30;;;;;;5038331;28;20045;-44
2022/05/28 07:32:07;;;;;;;19.48;3.95;;;17.70;98.20;;;;;;5040239;28;20057;-43
2022/05/28 07:34:33;;;;;;;12.02;3.08;;;17.90;98.50;;;;;;5017396;28;20041;-46
2022/05/28 07:37:04;;;;;;;12.57;3.55;;;18.50;97.80;;;;;;5039190;28;20495;-45
2022/05/28 07:39:30;;;;;;;12.65;3.22;;;18.70;97.20;;;;;;5038344;28;20056;-45
2022/05/28 07:41:56;;;;;;;14.73;3.95;;;18.60;97.00;;;;;;5041426;28;20460;-46
2022/05/28 07:44:21;;;;;;;16.70;4.72;;;18.20;96.30;;;;;;5043656;28;20056;-43
2022/05/28 07:46:47;;;;;;;13.18;3.70;;;17.90;96.50;;;;;;5043135;28;20128;-45
2022/05/28 07:49:13;;;;;;;13.25;3.60;;;18.20;97.40;;;;;;5044454;28;20316;-44
2022/05/28 07:51:39;;;;;;;11.60;3.13;;;18.20;97.20;;;;;;5042868;28;20083;-47
2022/05/28 07:54:06;;;;;;;15.55;3.63;;;17.80;96.50;;;;;;5041690;28;20135;-47
2022/05/28 07:56:32;;;;;;;13.02;3.47;;;17.50;96.70;;;;;;5025894;28;20079;-45
2022/05/28 07:58:59;;;;;;;11.55;3.72;;;17.10;97.40;;;;;;5022654;28;20473;-45
2022/05/28 08:01:30;;;;;;;12.93;3.42;;;16.90;98.00;;;;;;5041634;28;20071;-45
2022/05/28 08:03:59;;;;;;;12.65;3.50;;;16.70;98.90;;;;;;5044109;28;20411;-45
2022/05/28 08:06:26;;;;;;;15.77;3.45;;;16.50;99.00;;;;;;5043697;28;20061;-46
2022/05/28 08:08:52;;;;;;;12.68;3.20;;;16.60;98.70;;;;;;5042365;28;20061;-46
2022/05/28 08:11:18;;;;;;;16.25;4.03;;;16.90;98.80;;;;;;5044033;28;20430;-45
2022/05/28 08:13:44;;;;;;;13.40;3.50;;;16.90;98.90;;;;;;5042961;28;20528;-44
2022/05/28 08:16:10;;;;;;;11.25;3.22;;;16.90;98.40;;;;;;5045081;28;20063;-44
2022/05/28 08:18:39;;;;;;;13.27;3.60;;;16.60;98.70;;;;;;5024942;28;20118;-49
2022/05/28 08:23:51;;;;;;;13.32;4.57;;;16.40;99.90;;;;;;5040551;28;20056;-44
2022/05/28 08:26:19;;;;;;;13.57;3.42;;;16.40;99.70;;;;;;5041341;28;20073;-44
2022/05/28 08:28:47;;;;;;;13.18;3.47;;;16.30;98.80;;;;;;5023426;28;20057;-44
2022/05/28 08:31:13;;;;;;;11.55;3.17;;;16.40;99.00;;;;;;5021855;28;20458;-46
2022/05/28 08:33:39;;;;;;;17.75;3.65;;;16.70;99.10;;;;;;5040761;28;20563;-45
2022/05/28 08:36:05;;;;;;;12.52;3.28;;;16.60;98.70;;;;;;5022280;28;20222;-44
2022/05/28 08:38:31;;;;;;;14.57;3.38;;;16.60;98.90;;;;;;5038095;28;20140;-44
2022/05/28 08:41:08;;;;;;;14.25;3.88;;;16.40;98.90;;;;;;5019177;28;20052;-44
2022/05/28 08:43:44;;;;;;;12.43;3.22;;;16.20;99.00;;;;;;5016926;28;20040;-44
2022/05/28 08:46:13;;;;;;;11.75;3.20;;;16.20;99.30;;;;;;5041640;28;20049;-44
2022/05/28 08:48:53;;;;;;;17.92;3.33;;;16.30;99.80;;;;;;5044532;28;20067;-45
2022/05/28 08:51:44;;;;;;;10.40;2.97;;;16.70;99.70;;;;;;5038126;28;20045;-45
2022/05/28 08:54:31;;;;;;;13.55;3.53;;;16.90;99.40;;;;;;5040681;28;20041;-45
2022/05/28 08:57:01;;;;;;;11.10;3.13;;;17.00;98.30;;;;;;5022911;28;20088;-44
2022/05/28 08:59:33;;;;;;;9.65;2.40;;;17.30;99.40;;;;;;5038186;28;20060;-44
2022/05/28 09:02:00;;;;;;;13.57;3.20;;;17.30;96.90;;;;;;5044617;28;20045;-43
2022/05/28 09:04:35;;;;;;;14.63;3.05;;;17.30;97.10;;;;;;5041278;28;20067;-45
2022/05/28 09:07:05;;;;;;;13.75;3.15;;;17.10;97.40;;;;;;5041612;28;20109;-44
2022/05/28 09:09:54;;;;;;;15.88;3.42;;;17.00;97.80;;;;;;5025085;28;20061;-44
2022/05/28 09:12:31;;;;;;;11.13;2.65;;;17.20;97.40;;;;;;5042833;28;20110;-44
2022/05/28 09:14:57;;;;;;;11.77;3.35;;;17.50;98.30;;;;;;5019314;28;20499;-44
2022/05/28 09:17:45;;;;;;;15.55;3.50;;;17.80;98.50;;;;;;5036459;28;20044;-46
2022/05/28 09:20:20;;;;;;;14.52;3.80;;;18.10;97.90;;;;;;5028526;28;20552;-45
2022/05/28 09:22:46;;;;;;;12.32;3.47;;;17.80;96.30;;;;;;5035592;28;20119;-46
2022/05/28 09:25:16;;;;;;;11.35;2.70;;;17.40;96.40;;;;;;5041050;28;20056;-46
2022/05/28 09:28:15;;;;;;;14.43;4.07;;;17.20;97.20;;;;;;5039748;28;20205;-45
2022/05/28 09:30:46;;;;;;;12.23;2.78;;;17.60;97.80;;;;;;5027679;28;20495;-42
2022/05/28 09:33:24;;;;;;;10.65;3.20;;;17.90;96.10;;;;;;5044318;28;20044;-49
2022/05/28 09:35:56;;;;;;;12.35;3.75;;;17.70;96.00;;;;;;5014108;28;20123;-45
2022/05/28 09:38:32;;;;;;;8.93;2.55;;;17.90;96.60;;;;;;5016582;28;20801;-46
2022/05/28 09:40:58;;;;;;;13.68;3.00;;;18.10;97.10;;;;;;5025996;28;20148;-44
2022/05/28 09:43:39;;;;;;;10.57;3.33;;;17.70;96.50;;;;;;5037538;28;20033;-46
2022/05/28 09:46:31;;;;;;;10.07;2.70;;;17.30;95.90;;;;;;5033030;28;20041;-44
2022/05/28 09:49:26;;;;;;;11.55;3.25;;;17.30;96.50;;;;;;5023676;28;20427;-46
2022/05/28 09:52:06;;;;;;;12.15;3.15;;;17.30;95.90;;;;;;4960988;28;20054;-44
2022/05/28 09:54:33;;;;;;;9.70;3.35;;;17.20;96.20;;;;;;4977730;28;20054;-47
2022/05/28 09:57:11;;;;;;;17.23;4.03;;;16.90;97.00;;;;;;4979226;28;20146;-46
2022/05/28 09:59:51;;;;;;;10.18;2.50;;;17.00;96.60;;;;;;4978018;28;21122;-44
2022/05/28 10:02:24;;;;;;;9.40;2.97;;;17.10;96.60;;;;;;4975191;28;20069;-46
2022/05/28 10:04:53;;;;;;;12.05;3.80;;;17.40;97.30;;;;;;4972277;28;20075;-45
2022/05/28 10:07:37;;;;;;;14.45;3.70;;;17.70;97.30;;;;;;4973966;28;20050;-46
2022/05/28 10:10:35;;;;;;;13.07;3.08;;;17.50;96.10;;;;;;4962894;28;20062;-45
2022/05/28 10:13:12;;;;;;;11.00;2.97;;;17.50;97.20;;;;;;4891825;29;20074;-46
2022/05/28 10:15:43;;;;;;;16.20;3.08;;;17.70;95.60;;;;;;4922067;29;20055;-44
2022/05/28 10:18:17;;;;;;;15.63;3.38;;;17.80;96.60;;;;;;4911111;29;20095;-44
2022/05/28 10:20:43;;;;;;;12.70;3.47;;;17.30;96.40;;;;;;4922141;29;20501;-44
2022/05/28 10:23:20;;;;;;;15.50;4.03;;;17.10;96.90;;;;;;4913450;29;20060;-46
2022/05/28 10:25:49;;;;;;;15.80;3.17;;;16.60;97.50;;;;;;4902843;29;20064;-44
2022/05/28 10:28:29;;;;;;;13.15;3.30;;;16.40;97.10;;;;;;4910905;29;20078;-45
2022/05/28 10:30:56;;;;;;;13.85;3.30;;;16.30;98.00;;;;;;4939959;28;20066;-45
2022/05/28 10:33:28;;;;;;;11.82;3.65;;;16.10;98.10;;;;;;4931579;28;20077;-45
2022/05/28 10:36:09;;;;;;;18.05;4.35;;;16.10;98.70;;;;;;4950518;28;20142;-45
2022/05/28 10:38:36;;;;;;;21.95;3.92;;;16.40;98.70;;;;;;4940876;29;20043;-45
2022/05/28 10:41:20;;;;;;;13.10;3.17;;;16.80;98.50;;;;;;4938959;28;20070;-45
2022/05/28 10:43:46;;;;;;;11.73;3.00;;;16.90;97.60;;;;;;4925649;29;20078;-45
2022/05/28 10:46:30;;;;;;;12.65;3.20;;;16.80;97.30;;;;;;4941443;29;20644;-45
2022/05/28 10:49:21;;;;;;;13.60;3.42;;;16.50;97.70;;;;;;4972679;28;20114;-46
2022/05/28 10:52:02;;;;;;;12.30;3.05;;;16.30;97.70;;;;;;5045179;28;20060;-46
2022/05/28 10:54:35;;;;;;;16.15;3.30;;;16.70;98.00;;;;;;5037799;28;20064;-47
2022/05/28 10:57:34;;;;;;;13.00;3.50;;;17.20;98.90;;;;;;5040461;28;20091;-44
2022/05/28 11:00:11;;;;;;;11.60;2.92;;;17.30;99.00;;;;;;5022058;28;20475;-45
2022/05/28 11:02:52;;;;;;;17.13;3.40;;;17.30;97.80;;;;;;5004090;28;20148;-46
2022/05/28 11:05:26;;;;;;;12.57;2.90;;;17.10;98.10;;;;;;5021214;28;20049;-43
2022/05/28 11:07:59;;;;;;;9.95;3.10;;;16.90;97.40;;;;;;5021195;28;20045;-47
2022/05/28 11:10:32;;;;;;;9.30;2.20;;;17.00;95.10;;;;;;5019892;28;20056;-43
2022/05/28 11:13:21;;;;;;;11.07;3.15;;;17.40;97.60;;;;;;5020260;28;20598;-44
2022/05/28 11:16:22;;;;;;;9.25;2.55;;;17.70;95.10;;;;;;5020995;28;20419;-45
2022/05/28 11:19:11;;;;;;;7.82;2.60;;;17.40;95.60;;;;;;5002823;28;20060;-46
2022/05/28 11:21:41;;;;;;;8.98;2.13;;;17.70;95.50;;;;;;5038254;28;20049;-44
2022/05/28 11:24:13;;;;;;;11.93;3.25;;;17.90;95.30;;;;;;5016961;28;20049;-44
2022/05/28 11:26:58;;;;;;;11.52;2.80;;;17.80;95.60;;;;;;5032574;28;20045;-44
2022/05/28 11:29:27;;;;;;;10.70;2.65;;;17.70;95.80;;;;;;5030562;28;20439;-44
2022/05/28 11:32:00;;;;;;;9.65;2.95;;;17.30;96.10;;;;;;4997336;28;20305;-44
2022/05/28 11:35:00;;;;;;;9.60;3.05;;;17.10;96.70;;;;;;5039334;28;20041;-45
2022/05/28 11:37:43;;;;;;;10.93;3.35;;;16.90;97.50;;;;;;5034562;28;20053;-44
2022/05/28 11:40:18;;;;;;;12.57;3.70;;;16.40;97.70;;;;;;5040659;28;20376;-44
2022/05/28 11:43:07;;;;;;;10.23;3.13;;;16.30;98.40;;;;;;5039938;28;20092;-45
2022/05/28 11:45:39;;;;;;;11.20;3.15;;;16.30;98.00;;;;;;5037993;28;20107;-46
2022/05/28 11:48:09;;;;;;;13.45;3.28;;;16.40;98.30;;;;;;5038302;28;20049;-45
2022/05/28 11:53:52;;;;;;;9.55;2.78;;;16.40;98.20;;;;;;5034562;28;20406;-46
2022/05/28 11:56:22;;;;;;;10.95;2.70;;;16.40;98.80;;;;;;5041238;28;20128;-43
2022/05/28 11:59:02;;;;;;;13.80;3.50;;;16.50;99.20;;;;;;5040244;28;20059;-44
2022/05/28 12:01:31;;;;;;;16.20;3.95;;;16.40;98.00;;;;;;5041188;28;20120;-46
2022/05/28 12:03:57;;;;;;;15.88;3.60;;;16.30;99.90;;;;;;5040935;28;20130;-44
2022/05/28 12:06:31;;;;;;;7.47;2.45;;;16.70;99.90;;;;;;5040992;28;20057;-44
2022/05/28 12:09:20;;;;;;;7.75;2.40;;;16.90;99.30;;;;;;5041632;28;20092;-46
2022/05/28 12:12:10;;;;;;;8.18;2.50;;;16.70;97.90;;;;;;5044570;28;20057;-45
2022/05/28 12:14:39;;;;;;;7.32;2.13;;;16.80;97.70;;;;;;5040179;28;20587;-46
2022/05/28 12:17:10;;;;;;;10.18;2.55;;;16.60;97.80;;;;;;5040777;28;20681;-44
2022/05/28 12:19:54;;;;;;;8.63;2.40;;;16.60;97.10;;;;;;5040748;28;20824;-45
2022/05/28 12:22:30;;;;;;;13.50;3.63;;;16.50;96.40;;;;;;5040789;28;20049;-45
2022/05/28 12:24:59;;;;;;;13.27;3.22;;;16.40;96.90;;;;;;5041019;28;20048;-44
2022/05/28 12:27:36;;;;;;;10.38;2.72;;;16.70;97.90;;;;;;5043174;28;20393;-47
2022/05/28 12:30:08;;;;;;;13.15;3.95;;;16.70;98.40;;;;;;5025593;28;20045;-46
2022/05/28 12:32:51;;;;;;;14.68;3.08;;;16.60;99.90;;;;;;5025195;28;20057;-46
2022/05/28 12:35:20;;;;;;;13.75;4.40;;;16.20;99.90;;;;;;5042799;28;20586;-46
2022/05/28 12:37:52;;;;;;;12.43;3.53;;;16.00;99.90;;;;;;5043267;28;20065;-46
2022/05/28 12:40:36;;;;;;;10.32;2.78;;;16.10;99.90;;;;;;5042834;28;20055;-47
2022/05/28 12:43:34;;;;;;;8.50;2.38;;;16.30;99.90;;;;;;5024155;28;20063;-46
2022/05/28 12:46:33;;;;;;;11.43;2.97;;;16.10;99.90;;;;;;5024137;28;20135;-48
2022/05/28 12:49:33;;;;;;;16.02;4.00;;;16.00;99.30;;;;;;5043972;28;20637;-45
2022/05/28 12:52:03;;;;;;;13.00;2.97;;;16.00;99.90;;;;;;5039739;28;20524;-46
2022/05/28 12:54:35;;;;;;;16.55;3.95;;;16.00;99.90;;;;;;5024019;28;20053;-46
2022/05/28 12:57:10;;;;;;;16.00;3.53;;;15.90;99.80;;;;;;5022315;28;20060;-46
2022/05/28 12:59:45;;;;;;;12.52;2.85;;;15.70;99.90;;;;;;5043657;28;20223;-45
2022/05/28 13:02:16;;;;;;;9.73;2.45;;;15.50;99.20;;;;;;5021965;28;20064;-44
2022/05/28 13:04:46;;;;;;;8.57;2.50;;;15.60;99.90;;;;;;5042086;28;20048;-47
2022/05/28 13:07:27;;;;;;;10.90;2.92;;;15.70;99.30;;;;;;5043467;28;20045;-50
2022/05/28 13:10:19;;;;;;;9.45;2.60;;;15.90;99.20;;;;;;5043963;28;20056;-48
2022/05/28 13:12:52;;;;;;;9.38;2.70;;;16.00;98.50;;;;;;5039778;28;20115;-47
2022/05/28 13:15:42;;;;;;;7.97;2.20;;;16.30;98.70;;;;;;5042029;28;20433;-48